sensor_id;sensor_type;location;lat;lon;timestamp;pressure;altitude;pressure_sealevel;temperature
15680;BMP180;15488;48.114;11.532;2022-12-24T00:00:17;94758.00;;;17.20
15680;BMP180;15488;48.114;11.532;2022-12-24T00:02:44;94767.00;;;17.20
15680;BMP180;15488;48.114;11.532;2022-12-24T00:05:12;94767.00;;;17.20
15680;BMP180;15488;48.114;11.532;2022-12-24T00:07:39;94757.00;;;17.20
15680;BMP180;15488;48.114;11.532;2022-12-24T00:10:08;94774.00;;;17.10
15680;BMP180;15488;48.114;11.532;2022-12-24T00:12:36;94778.00;;;17.10
15680;BMP180;15488;48.114;11.532;2022-12-24T00:15:07;94781.00;;;17.10
15680;BMP180;15488;48.114;11.532;2022-12-24T00:17:34;94789.00;;;17.10
15680;BMP180;15488;48.114;11.532;2022-12-24T00:20:02;94785.00;;;17.10
15680;BMP180;15488;48.114;11.532;2022-12-24T00:22:30;94784.00;;;17.10
15680;BMP180;15488;48.114;11.532;2022-12-24T00:24:57;94802.00;;;17.10
15680;BMP180;15488;48.114;11.532;2022-12-24T00:27:25;94794.00;;;17.10
15680;BMP180;15488;48.114;11.532;2022-12-24T00:29:52;94793.00;;;17.10
15680;BMP180;15488;48.114;11.532;2022-12-24T00:32:21;94804.00;;;17.10
15680;BMP180;15488;48.114;11.532;2022-12-24T00:34:48;94804.00;;;17.10
15680;BMP180;15488;48.114;11.532;2022-12-24T00:37:16;94800.00;;;17.10
15680;BMP180;15488;48.114;11.532;2022-12-24T00:39:43;94789.00;;;17.10
15680;BMP180;15488;48.114;11.532;2022-12-24T00:42:11;94813.00;;;17.10
15680;BMP180;15488;48.114;11.532;2022-12-24T00:44:38;94816.00;;;17.20
15680;BMP180;15488;48.114;11.532;2022-12-24T00:47:05;94831.00;;;17.10
15680;BMP180;15488;48.114;11.532;2022-12-24T00:49:34;94829.00;;;17.20
15680;BMP180;15488;48.114;11.532;2022-12-24T00:52:02;94834.00;;;17.20
15680;BMP180;15488;48.114;11.532;2022-12-24T00:54:29;94829.00;;;17.20
15680;BMP180;15488;48.114;11.532;2022-12-24T00:56:57;94832.00;;;17.20
15680;BMP180;15488;48.114;11.532;2022-12-24T00:59:24;94839.00;;;17.30
15680;BMP180;15488;48.114;11.532;2022-12-24T01:01:52;94841.00;;;17.30
15680;BMP180;15488;48.114;11.532;2022-12-24T01:04:19;94848.00;;;17.30
15680;BMP180;15488;48.114;11.532;2022-12-24T01:07:05;94845.00;;;17.30
15680;BMP180;15488;48.114;11.532;2022-12-24T01:09:33;94855.00;;;17.40
15680;BMP180;15488;48.114;11.532;2022-12-24T01:12:00;94872.00;;;17.40
15680;BMP180;15488;48.114;11.532;2022-12-24T01:14:28;94783.00;;;17.40
15680;BMP180;15488;48.114;11.532;2022-12-24T01:16:55;94865.00;;;17.50
15680;BMP180;15488;48.114;11.532;2022-12-24T01:19:23;94868.00;;;17.50
15680;BMP180;15488;48.114;11.532;2022-12-24T01:21:50;94864.00;;;17.40
15680;BMP180;15488;48.114;11.532;2022-12-24T01:24:19;94864.00;;;17.40
15680;BMP180;15488;48.114;11.532;2022-12-24T01:26:47;94864.00;;;17.40
15680;BMP180;15488;48.114;11.532;2022-12-24T01:29:15;94867.00;;;17.50
15680;BMP180;15488;48.114;11.532;2022-12-24T01:31:42;94874.00;;;17.50
15680;BMP180;15488;48.114;11.532;2022-12-24T01:34:10;94885.00;;;17.50
15680;BMP180;15488;48.114;11.532;2022-12-24T01:36:37;94880.00;;;17.40
15680;BMP180;15488;48.114;11.532;2022-12-24T01:39:05;94890.00;;;17.50
15680;BMP180;15488;48.114;11.532;2022-12-24T01:41:33;94886.00;;;17.50
15680;BMP180;15488;48.114;11.532;2022-12-24T01:44:23;94905.00;;;17.40
15680;BMP180;15488;48.114;11.532;2022-12-24T01:46:54;94901.00;;;17.40
15680;BMP180;15488;48.114;11.532;2022-12-24T01:49:23;94898.00;;;17.40
15680;BMP180;15488;48.114;11.532;2022-12-24T01:51:53;94910.00;;;17.30
15680;BMP180;15488;48.114;11.532;2022-12-24T01:54:24;94915.00;;;17.30
15680;BMP180;15488;48.114;11.532;2022-12-24T01:57:00;94918.00;;;17.30
15680;BMP180;15488;48.114;11.532;2022-12-24T01:59:29;94924.00;;;17.30
15680;BMP180;15488;48.114;11.532;2022-12-24T02:01:57;94916.00;;;17.30
15680;BMP180;15488;48.114;11.532;2022-12-24T02:04:31;94922.00;;;17.20
15680;BMP180;15488;48.114;11.532;2022-12-24T02:06:59;94928.00;;;17.20
15680;BMP180;15488;48.114;11.532;2022-12-24T02:09:28;94930.00;;;17.20
15680;BMP180;15488;48.114;11.532;2022-12-24T02:11:57;94939.00;;;17.20
15680;BMP180;15488;48.114;11.532;2022-12-24T02:14:25;94846.00;;;17.10
15680;BMP180;15488;48.114;11.532;2022-12-24T02:16:57;94932.00;;;17.10
15680;BMP180;15488;48.114;11.532;2022-12-24T02:22:52;94929.00;;;17.00
15680;BMP180;15488;48.114;11.532;2022-12-24T02:25:47;94931.00;;;17.00
15680;BMP180;15488;48.114;11.532;2022-12-24T02:28:29;94934.00;;;17.00
15680;BMP180;15488;48.114;11.532;2022-12-24T02:31:04;94910.00;;;17.10
15680;BMP180;15488;48.114;11.532;2022-12-24T02:33:36;94935.00;;;17.10
15680;BMP180;15488;48.114;11.532;2022-12-24T02:36:08;94933.00;;;17.10
15680;BMP180;15488;48.114;11.532;2022-12-24T02:38:41;94947.00;;;17.10
15680;BMP180;15488;48.114;11.532;2022-12-24T02:41:14;94949.00;;;17.10
15680;BMP180;15488;48.114;11.532;2022-12-24T02:43:44;94948.00;;;17.00
15680;BMP180;15488;48.114;11.532;2022-12-24T02:46:17;94952.00;;;17.00
15680;BMP180;15488;48.114;11.532;2022-12-24T02:48:48;94959.00;;;17.00
15680;BMP180;15488;48.114;11.532;2022-12-24T02:51:20;94951.00;;;17.00
15680;BMP180;15488;48.114;11.532;2022-12-24T02:53:48;94966.00;;;17.00
15680;BMP180;15488;48.114;11.532;2022-12-24T02:56:26;94979.00;;;16.90
15680;BMP180;15488;48.114;11.532;2022-12-24T02:59:09;94984.00;;;16.90
15680;BMP180;15488;48.114;11.532;2022-12-24T03:01:49;94976.00;;;17.00
15680;BMP180;15488;48.114;11.532;2022-12-24T03:04:26;94966.00;;;17.00
15680;BMP180;15488;48.114;11.532;2022-12-24T03:07:11;94979.00;;;17.00
15680;BMP180;15488;48.114;11.532;2022-12-24T03:09:53;94971.00;;;17.00
15680;BMP180;15488;48.114;11.532;2022-12-24T03:12:27;94969.00;;;17.00
15680;BMP180;15488;48.114;11.532;2022-12-24T03:14:56;94974.00;;;17.00
15680;BMP180;15488;48.114;11.532;2022-12-24T03:17:26;94976.00;;;17.10
15680;BMP180;15488;48.114;11.532;2022-12-24T03:19:54;94983.00;;;17.10
15680;BMP180;15488;48.114;11.532;2022-12-24T03:22:22;94985.00;;;17.10
15680;BMP180;15488;48.114;11.532;2022-12-24T03:24:51;94979.00;;;17.10
15680;BMP180;15488;48.114;11.532;2022-12-24T03:27:18;94972.00;;;17.10
15680;BMP180;15488;48.114;11.532;2022-12-24T03:29:46;94973.00;;;17.20
15680;BMP180;15488;48.114;11.532;2022-12-24T03:32:14;94976.00;;;17.20
15680;BMP180;15488;48.114;11.532;2022-12-24T03:34:42;94987.00;;;17.20
15680;BMP180;15488;48.114;11.532;2022-12-24T03:37:10;94987.00;;;17.20
15680;BMP180;15488;48.114;11.532;2022-12-24T03:39:37;94982.00;;;17.30
15680;BMP180;15488;48.114;11.532;2022-12-24T03:42:05;94997.00;;;17.30
15680;BMP180;15488;48.114;11.532;2022-12-24T03:44:32;95007.00;;;17.30
15680;BMP180;15488;48.114;11.532;2022-12-24T03:46:59;95011.00;;;17.30
15680;BMP180;15488;48.114;11.532;2022-12-24T03:49:27;95004.00;;;17.30
15680;BMP180;15488;48.114;11.532;2022-12-24T03:51:56;95002.00;;;17.30
15680;BMP180;15488;48.114;11.532;2022-12-24T03:54:23;95001.00;;;17.30
15680;BMP180;15488;48.114;11.532;2022-12-24T03:56:51;94982.00;;;17.30
15680;BMP180;15488;48.114;11.532;2022-12-24T03:59:18;94929.00;;;17.30
15680;BMP180;15488;48.114;11.532;2022-12-24T04:01:46;95010.00;;;17.40
15680;BMP180;15488;48.114;11.532;2022-12-24T04:04:13;95015.00;;;17.40
15680;BMP180;15488;48.114;11.532;2022-12-24T04:06:41;95015.00;;;17.40
15680;BMP180;15488;48.114;11.532;2022-12-24T04:09:10;95017.00;;;17.30
15680;BMP180;15488;48.114;11.532;2022-12-24T04:11:37;95017.00;;;17.40
15680;BMP180;15488;48.114;11.532;2022-12-24T04:14:05;95030.00;;;17.30
15680;BMP180;15488;48.114;11.532;2022-12-24T04:16:32;95030.00;;;17.30
15680;BMP180;15488;48.114;11.532;2022-12-24T04:18:59;95044.00;;;17.30
15680;BMP180;15488;48.114;11.532;2022-12-24T04:21:27;95045.00;;;17.30
15680;BMP180;15488;48.114;11.532;2022-12-24T04:23:54;95040.00;;;17.30
15680;BMP180;15488;48.114;11.532;2022-12-24T04:26:23;95039.00;;;17.30
15680;BMP180;15488;48.114;11.532;2022-12-24T04:28:50;95051.00;;;17.30
15680;BMP180;15488;48.114;11.532;2022-12-24T04:31:19;95056.00;;;17.20
15680;BMP180;15488;48.114;11.532;2022-12-24T04:33:46;95057.00;;;17.30
15680;BMP180;15488;48.114;11.532;2022-12-24T04:36:15;95070.00;;;17.30
15680;BMP180;15488;48.114;11.532;2022-12-24T04:38:43;95054.00;;;17.30
15680;BMP180;15488;48.114;11.532;2022-12-24T04:41:12;95062.00;;;17.30
15680;BMP180;15488;48.114;11.532;2022-12-24T04:43:41;95057.00;;;17.30
15680;BMP180;15488;48.114;11.532;2022-12-24T04:46:11;95052.00;;;17.30
15680;BMP180;15488;48.114;11.532;2022-12-24T04:48:40;95067.00;;;17.30
15680;BMP180;15488;48.114;11.532;2022-12-24T04:51:08;95070.00;;;17.30
15680;BMP180;15488;48.114;11.532;2022-12-24T04:53:36;95078.00;;;17.30
15680;BMP180;15488;48.114;11.532;2022-12-24T04:56:06;95080.00;;;17.20
15680;BMP180;15488;48.114;11.532;2022-12-24T04:58:34;95071.00;;;17.20
15680;BMP180;15488;48.114;11.532;2022-12-24T05:01:04;95084.00;;;17.20
15680;BMP180;15488;48.114;11.532;2022-12-24T05:03:32;95081.00;;;17.20
15680;BMP180;15488;48.114;11.532;2022-12-24T05:06:01;95075.00;;;17.20
15680;BMP180;15488;48.114;11.532;2022-12-24T05:08:28;95079.00;;;17.20
15680;BMP180;15488;48.114;11.532;2022-12-24T05:10:56;95080.00;;;17.20
15680;BMP180;15488;48.114;11.532;2022-12-24T05:13:24;95077.00;;;17.20
15680;BMP180;15488;48.114;11.532;2022-12-24T05:15:52;95075.00;;;17.20
15680;BMP180;15488;48.114;11.532;2022-12-24T05:18:21;95081.00;;;17.20
15680;BMP180;15488;48.114;11.532;2022-12-24T05:20:49;95089.00;;;17.20
15680;BMP180;15488;48.114;11.532;2022-12-24T05:23:18;95079.00;;;17.10
15680;BMP180;15488;48.114;11.532;2022-12-24T05:26:09;95087.00;;;17.10
15680;BMP180;15488;48.114;11.532;2022-12-24T05:28:52;95097.00;;;17.20
15680;BMP180;15488;48.114;11.532;2022-12-24T05:31:20;95093.00;;;17.20
15680;BMP180;15488;48.114;11.532;2022-12-24T05:33:49;95108.00;;;17.20
15680;BMP180;15488;48.114;11.532;2022-12-24T05:36:17;95094.00;;;17.10
15680;BMP180;15488;48.114;11.532;2022-12-24T05:38:44;95094.00;;;17.20
15680;BMP180;15488;48.114;11.532;2022-12-24T05:41:12;95100.00;;;17.10
15680;BMP180;15488;48.114;11.532;2022-12-24T05:43:39;95097.00;;;17.10
15680;BMP180;15488;48.114;11.532;2022-12-24T05:46:08;95021.00;;;17.10
15680;BMP180;15488;48.114;11.532;2022-12-24T05:48:36;95113.00;;;17.10
15680;BMP180;15488;48.114;11.532;2022-12-24T05:51:06;95108.00;;;17.10
15680;BMP180;15488;48.114;11.532;2022-12-24T05:53:35;95107.00;;;17.10
15680;BMP180;15488;48.114;11.532;2022-12-24T05:56:03;95127.00;;;17.10
15680;BMP180;15488;48.114;11.532;2022-12-24T05:58:31;95121.00;;;17.10
15680;BMP180;15488;48.114;11.532;2022-12-24T06:00:59;95121.00;;;17.10
15680;BMP180;15488;48.114;11.532;2022-12-24T06:03:27;95120.00;;;17.10
15680;BMP180;15488;48.114;11.532;2022-12-24T06:05:59;95129.00;;;17.10
15680;BMP180;15488;48.114;11.532;2022-12-24T06:08:28;95129.00;;;17.10
15680;BMP180;15488;48.114;11.532;2022-12-24T06:10:57;95138.00;;;17.10
15680;BMP180;15488;48.114;11.532;2022-12-24T06:13:25;95137.00;;;17.10
15680;BMP180;15488;48.114;11.532;2022-12-24T06:15:54;95143.00;;;17.00
15680;BMP180;15488;48.114;11.532;2022-12-24T06:18:22;95146.00;;;17.10
15680;BMP180;15488;48.114;11.532;2022-12-24T06:20:50;95155.00;;;17.10
15680;BMP180;15488;48.114;11.532;2022-12-24T06:23:18;95153.00;;;17.20
15680;BMP180;15488;48.114;11.532;2022-12-24T06:25:47;95136.00;;;17.20
15680;BMP180;15488;48.114;11.532;2022-12-24T06:28:14;95137.00;;;17.20
15680;BMP180;15488;48.114;11.532;2022-12-24T06:30:46;95134.00;;;17.20
15680;BMP180;15488;48.114;11.532;2022-12-24T06:33:14;95136.00;;;17.20
15680;BMP180;15488;48.114;11.532;2022-12-24T06:35:43;95142.00;;;17.20
15680;BMP180;15488;48.114;11.532;2022-12-24T06:38:10;95153.00;;;17.30
15680;BMP180;15488;48.114;11.532;2022-12-24T06:40:38;95147.00;;;17.30
15680;BMP180;15488;48.114;11.532;2022-12-24T06:43:07;95156.00;;;17.30
15680;BMP180;15488;48.114;11.532;2022-12-24T06:45:34;95155.00;;;17.30
15680;BMP180;15488;48.114;11.532;2022-12-24T06:48:02;95147.00;;;17.30
15680;BMP180;15488;48.114;11.532;2022-12-24T06:50:29;95157.00;;;17.30
15680;BMP180;15488;48.114;11.532;2022-12-24T06:52:57;95152.00;;;17.30
15680;BMP180;15488;48.114;11.532;2022-12-24T06:55:25;95158.00;;;17.30
15680;BMP180;15488;48.114;11.532;2022-12-24T06:57:52;95171.00;;;17.30
15680;BMP180;15488;48.114;11.532;2022-12-24T07:00:21;95179.00;;;17.30
15680;BMP180;15488;48.114;11.532;2022-12-24T07:02:49;95181.00;;;17.30
15680;BMP180;15488;48.114;11.532;2022-12-24T07:05:16;95170.00;;;17.30
15680;BMP180;15488;48.114;11.532;2022-12-24T07:07:44;95175.00;;;17.30
15680;BMP180;15488;48.114;11.532;2022-12-24T07:10:14;95173.00;;;17.40
15680;BMP180;15488;48.114;11.532;2022-12-24T07:12:42;95178.00;;;17.40
15680;BMP180;15488;48.114;11.532;2022-12-24T07:15:11;95184.00;;;17.30
15680;BMP180;15488;48.114;11.532;2022-12-24T07:17:40;95182.00;;;17.30
15680;BMP180;15488;48.114;11.532;2022-12-24T07:20:09;95185.00;;;17.30
15680;BMP180;15488;48.114;11.532;2022-12-24T07:22:38;95190.00;;;17.30
15680;BMP180;15488;48.114;11.532;2022-12-24T07:25:06;95196.00;;;17.30
15680;BMP180;15488;48.114;11.532;2022-12-24T07:27:34;95190.00;;;17.20
15680;BMP180;15488;48.114;11.532;2022-12-24T07:30:01;95202.00;;;17.20
15680;BMP180;15488;48.114;11.532;2022-12-24T07:32:29;95197.00;;;17.20
15680;BMP180;15488;48.114;11.532;2022-12-24T07:34:58;95198.00;;;17.10
15680;BMP180;15488;48.114;11.532;2022-12-24T07:37:25;95196.00;;;17.10
15680;BMP180;15488;48.114;11.532;2022-12-24T07:39:53;95204.00;;;17.10
15680;BMP180;15488;48.114;11.532;2022-12-24T07:42:20;95215.00;;;16.80
15680;BMP180;15488;48.114;11.532;2022-12-24T07:44:48;95224.00;;;17.10
15680;BMP180;15488;48.114;11.532;2022-12-24T07:47:15;95216.00;;;17.10
15680;BMP180;15488;48.114;11.532;2022-12-24T07:49:42;95232.00;;;17.10
15680;BMP180;15488;48.114;11.532;2022-12-24T07:52:11;95238.00;;;17.00
15680;BMP180;15488;48.114;11.532;2022-12-24T07:54:39;95238.00;;;17.00
15680;BMP180;15488;48.114;11.532;2022-12-24T07:57:06;95249.00;;;17.00
15680;BMP180;15488;48.114;11.532;2022-12-24T07:59:33;95244.00;;;17.00
15680;BMP180;15488;48.114;11.532;2022-12-24T08:02:01;95247.00;;;17.00
15680;BMP180;15488;48.114;11.532;2022-12-24T08:04:31;95253.00;;;16.90
15680;BMP180;15488;48.114;11.532;2022-12-24T08:07:01;95261.00;;;16.90
15680;BMP180;15488;48.114;11.532;2022-12-24T08:09:32;95262.00;;;16.90
15680;BMP180;15488;48.114;11.532;2022-12-24T08:11:59;95265.00;;;17.00
15680;BMP180;15488;48.114;11.532;2022-12-24T08:14:28;95264.00;;;16.90
15680;BMP180;15488;48.114;11.532;2022-12-24T08:16:55;95275.00;;;16.90
15680;BMP180;15488;48.114;11.532;2022-12-24T08:19:23;95280.00;;;16.90
15680;BMP180;15488;48.114;11.532;2022-12-24T08:21:51;95290.00;;;16.90
15680;BMP180;15488;48.114;11.532;2022-12-24T08:24:18;95293.00;;;16.90
15680;BMP180;15488;48.114;11.532;2022-12-24T08:26:47;95301.00;;;16.90
15680;BMP180;15488;48.114;11.532;2022-12-24T08:29:14;95294.00;;;17.00
15680;BMP180;15488;48.114;11.532;2022-12-24T08:31:42;95295.00;;;17.00
15680;BMP180;15488;48.114;11.532;2022-12-24T08:34:10;95302.00;;;17.00
15680;BMP180;15488;48.114;11.532;2022-12-24T08:36:37;95293.00;;;17.00
15680;BMP180;15488;48.114;11.532;2022-12-24T08:39:05;95298.00;;;17.00
15680;BMP180;15488;48.114;11.532;2022-12-24T08:41:34;95295.00;;;17.00
15680;BMP180;15488;48.114;11.532;2022-12-24T08:44:03;95293.00;;;17.00
15680;BMP180;15488;48.114;11.532;2022-12-24T08:46:31;95303.00;;;17.10
15680;BMP180;15488;48.114;11.532;2022-12-24T08:48:59;95303.00;;;17.00
15680;BMP180;15488;48.114;11.532;2022-12-24T08:51:26;95326.00;;;17.10
15680;BMP180;15488;48.114;11.532;2022-12-24T08:53:54;95310.00;;;17.00
15680;BMP180;15488;48.114;11.532;2022-12-24T08:56:21;95315.00;;;17.00
15680;BMP180;15488;48.114;11.532;2022-12-24T08:58:49;95310.00;;;17.00
15680;BMP180;15488;48.114;11.532;2022-12-24T09:01:19;95342.00;;;17.10
15680;BMP180;15488;48.114;11.532;2022-12-24T09:03:46;95349.00;;;17.00
15680;BMP180;15488;48.114;11.532;2022-12-24T09:06:14;95343.00;;;17.00
15680;BMP180;15488;48.114;11.532;2022-12-24T09:08:42;95339.00;;;17.00
15680;BMP180;15488;48.114;11.532;2022-12-24T09:11:12;95349.00;;;17.10
15680;BMP180;15488;48.114;11.532;2022-12-24T09:13:40;95345.00;;;17.10
15680;BMP180;15488;48.114;11.532;2022-12-24T09:16:08;95352.00;;;17.10
15680;BMP180;15488;48.114;11.532;2022-12-24T09:18:37;95355.00;;;17.10
15680;BMP180;15488;48.114;11.532;2022-12-24T09:21:06;95359.00;;;17.10
15680;BMP180;15488;48.114;11.532;2022-12-24T09:23:35;95373.00;;;17.20
15680;BMP180;15488;48.114;11.532;2022-12-24T09:26:05;95375.00;;;17.10
15680;BMP180;15488;48.114;11.532;2022-12-24T09:28:32;95372.00;;;17.20
15680;BMP180;15488;48.114;11.532;2022-12-24T09:31:02;95364.00;;;17.20
15680;BMP180;15488;48.114;11.532;2022-12-24T09:33:32;95363.00;;;17.20
15680;BMP180;15488;48.114;11.532;2022-12-24T09:36:01;95362.00;;;17.20
15680;BMP180;15488;48.114;11.532;2022-12-24T09:38:29;95370.00;;;17.20
15680;BMP180;15488;48.114;11.532;2022-12-24T09:40:58;95362.00;;;17.20
15680;BMP180;15488;48.114;11.532;2022-12-24T09:43:27;95370.00;;;17.10
15680;BMP180;15488;48.114;11.532;2022-12-24T09:46:05;95368.00;;;17.10
15680;BMP180;15488;48.114;11.532;2022-12-24T09:48:38;95358.00;;;17.10
15680;BMP180;15488;48.114;11.532;2022-12-24T09:51:10;95366.00;;;17.10
15680;BMP180;15488;48.114;11.532;2022-12-24T09:53:42;95370.00;;;17.10
15680;BMP180;15488;48.114;11.532;2022-12-24T09:56:14;95361.00;;;17.10
15680;BMP180;15488;48.114;11.532;2022-12-24T09:58:45;95361.00;;;17.10
15680;BMP180;15488;48.114;11.532;2022-12-24T10:01:15;95363.00;;;17.20
15680;BMP180;15488;48.114;11.532;2022-12-24T10:03:44;95352.00;;;17.20
15680;BMP180;15488;48.114;11.532;2022-12-24T10:06:16;95357.00;;;17.20
15680;BMP180;15488;48.114;11.532;2022-12-24T10:08:57;95357.00;;;17.10
15680;BMP180;15488;48.114;11.532;2022-12-24T10:11:34;95362.00;;;17.10
15680;BMP180;15488;48.114;11.532;2022-12-24T10:14:13;95368.00;;;17.10
15680;BMP180;15488;48.114;11.532;2022-12-24T10:16:50;95346.00;;;17.10
15680;BMP180;15488;48.114;11.532;2022-12-24T10:19:24;95363.00;;;17.20
15680;BMP180;15488;48.114;11.532;2022-12-24T10:22:02;95352.00;;;17.10
15680;BMP180;15488;48.114;11.532;2022-12-24T10:24:40;95360.00;;;17.20
15680;BMP180;15488;48.114;11.532;2022-12-24T10:27:12;95365.00;;;17.30
15680;BMP180;15488;48.114;11.532;2022-12-24T10:29:44;95362.00;;;17.30
15680;BMP180;15488;48.114;11.532;2022-12-24T10:32:20;95376.00;;;17.30
15680;BMP180;15488;48.114;11.532;2022-12-24T10:34:52;95366.00;;;17.30
15680;BMP180;15488;48.114;11.532;2022-12-24T10:37:25;95364.00;;;17.30
15680;BMP180;15488;48.114;11.532;2022-12-24T10:39:54;95364.00;;;17.30
15680;BMP180;15488;48.114;11.532;2022-12-24T10:42:24;95357.00;;;17.30
15680;BMP180;15488;48.114;11.532;2022-12-24T10:44:56;95346.00;;;17.40
15680;BMP180;15488;48.114;11.532;2022-12-24T10:47:27;95356.00;;;17.30
15680;BMP180;15488;48.114;11.532;2022-12-24T10:50:00;95351.00;;;17.30
15680;BMP180;15488;48.114;11.532;2022-12-24T10:52:34;95254.00;;;17.30
15680;BMP180;15488;48.114;11.532;2022-12-24T10:55:09;95354.00;;;17.30
15680;BMP180;15488;48.114;11.532;2022-12-24T10:57:38;95365.00;;;17.40
15680;BMP180;15488;48.114;11.532;2022-12-24T11:00:18;95374.00;;;17.40
15680;BMP180;15488;48.114;11.532;2022-12-24T11:02:47;95368.00;;;17.40
15680;BMP180;15488;48.114;11.532;2022-12-24T11:05:29;95361.00;;;17.40
15680;BMP180;15488;48.114;11.532;2022-12-24T11:08:01;95374.00;;;17.40
15680;BMP180;15488;48.114;11.532;2022-12-24T11:10:30;95373.00;;;17.50
15680;BMP180;15488;48.114;11.532;2022-12-24T11:12:57;95375.00;;;17.50
15680;BMP180;15488;48.114;11.532;2022-12-24T11:15:29;95378.00;;;17.50
15680;BMP180;15488;48.114;11.532;2022-12-24T11:18:00;95376.00;;;17.50
15680;BMP180;15488;48.114;11.532;2022-12-24T11:20:30;95373.00;;;17.50
15680;BMP180;15488;48.114;11.532;2022-12-24T11:23:00;95372.00;;;17.50
15680;BMP180;15488;48.114;11.532;2022-12-24T11:25:29;95367.00;;;17.60
15680;BMP180;15488;48.114;11.532;2022-12-24T11:28:10;95365.00;;;17.50
15680;BMP180;15488;48.114;11.532;2022-12-24T11:30:38;95373.00;;;17.60
15680;BMP180;15488;48.114;11.532;2022-12-24T11:33:19;95352.00;;;17.60
15680;BMP180;15488;48.114;11.532;2022-12-24T11:38:35;95348.00;;;17.70
15680;BMP180;15488;48.114;11.532;2022-12-24T11:41:05;95360.00;;;17.80
15680;BMP180;15488;48.114;11.532;2022-12-24T11:43:56;95349.00;;;17.80
15680;BMP180;15488;48.114;11.532;2022-12-24T11:46:36;95344.00;;;17.80
15680;BMP180;15488;48.114;11.532;2022-12-24T11:49:12;95346.00;;;17.90
15680;BMP180;15488;48.114;11.532;2022-12-24T11:51:44;95355.00;;;17.90
15680;BMP180;15488;48.114;11.532;2022-12-24T11:54:28;95356.00;;;17.90
15680;BMP180;15488;48.114;11.532;2022-12-24T11:56:58;95358.00;;;18.00
15680;BMP180;15488;48.114;11.532;2022-12-24T11:59:30;95361.00;;;18.00
15680;BMP180;15488;48.114;11.532;2022-12-24T12:02:03;95351.00;;;18.00
15680;BMP180;15488;48.114;11.532;2022-12-24T12:04:39;95356.00;;;18.10
15680;BMP180;15488;48.114;11.532;2022-12-24T12:07:12;95353.00;;;18.10
15680;BMP180;15488;48.114;11.532;2022-12-24T12:09:46;95256.00;;;18.20
15680;BMP180;15488;48.114;11.532;2022-12-24T12:12:18;95360.00;;;18.30
15680;BMP180;15488;48.114;11.532;2022-12-24T12:14:49;95379.00;;;18.30
15680;BMP180;15488;48.114;11.532;2022-12-24T12:17:26;95377.00;;;18.30
15680;BMP180;15488;48.114;11.532;2022-12-24T12:19:57;95362.00;;;18.40
15680;BMP180;15488;48.114;11.532;2022-12-24T12:22:29;95361.00;;;18.40
15680;BMP180;15488;48.114;11.532;2022-12-24T12:25:01;95355.00;;;18.40
15680;BMP180;15488;48.114;11.532;2022-12-24T12:27:34;95351.00;;;18.40
15680;BMP180;15488;48.114;11.532;2022-12-24T12:30:05;95355.00;;;18.50
15680;BMP180;15488;48.114;11.532;2022-12-24T12:32:42;95350.00;;;18.50
15680;BMP180;15488;48.114;11.532;2022-12-24T12:35:23;95380.00;;;18.50
15680;BMP180;15488;48.114;11.532;2022-12-24T12:37:55;95358.00;;;18.50
15680;BMP180;15488;48.114;11.532;2022-12-24T12:40:38;95368.00;;;18.50
15680;BMP180;15488;48.114;11.532;2022-12-24T12:43:19;95383.00;;;18.60
15680;BMP180;15488;48.114;11.532;2022-12-24T12:45:53;95380.00;;;18.60
15680;BMP180;15488;48.114;11.532;2022-12-24T12:48:43;95376.00;;;18.70
15680;BMP180;15488;48.114;11.532;2022-12-24T12:51:21;95372.00;;;18.80
15680;BMP180;15488;48.114;11.532;2022-12-24T12:54:08;95384.00;;;18.80
15680;BMP180;15488;48.114;11.532;2022-12-24T12:56:43;95387.00;;;18.70
15680;BMP180;15488;48.114;11.532;2022-12-24T12:59:17;95390.00;;;18.60
15680;BMP180;15488;48.114;11.532;2022-12-24T13:01:53;95388.00;;;18.60
15680;BMP180;15488;48.114;11.532;2022-12-24T13:05:01;95399.00;;;18.60
15680;BMP180;15488;48.114;11.532;2022-12-24T13:07:47;95396.00;;;18.50
15680;BMP180;15488;48.114;11.532;2022-12-24T13:10:55;95387.00;;;18.60
15680;BMP180;15488;48.114;11.532;2022-12-24T13:20:00;95385.00;;;18.70
15680;BMP180;15488;48.114;11.532;2022-12-24T13:22:30;95304.00;;;18.80
15680;BMP180;15488;48.114;11.532;2022-12-24T13:24:57;95402.00;;;18.80
15680;BMP180;15488;48.114;11.532;2022-12-24T13:27:27;95403.00;;;18.80
15680;BMP180;15488;48.114;11.532;2022-12-24T13:29:58;95408.00;;;18.80
15680;BMP180;15488;48.114;11.532;2022-12-24T13:32:53;95418.00;;;18.80
15680;BMP180;15488;48.114;11.532;2022-12-24T13:35:34;95406.00;;;18.80
15680;BMP180;15488;48.114;11.532;2022-12-24T13:38:31;95410.00;;;18.80
15680;BMP180;15488;48.114;11.532;2022-12-24T13:44:15;95421.00;;;18.80
15680;BMP180;15488;48.114;11.532;2022-12-24T13:46:52;95421.00;;;18.80
15680;BMP180;15488;48.114;11.532;2022-12-24T13:49:27;95418.00;;;18.80
15680;BMP180;15488;48.114;11.532;2022-12-24T13:52:16;95419.00;;;18.90
15680;BMP180;15488;48.114;11.532;2022-12-24T13:54:49;95418.00;;;19.00
15680;BMP180;15488;48.114;11.532;2022-12-24T13:57:30;95418.00;;;19.00
15680;BMP180;15488;48.114;11.532;2022-12-24T14:00:00;95422.00;;;19.10
15680;BMP180;15488;48.114;11.532;2022-12-24T14:02:33;95428.00;;;19.10
15680;BMP180;15488;48.114;11.532;2022-12-24T14:05:04;95418.00;;;19.10
15680;BMP180;15488;48.114;11.532;2022-12-24T14:07:34;95421.00;;;19.10
15680;BMP180;15488;48.114;11.532;2022-12-24T14:10:02;95425.00;;;19.00
15680;BMP180;15488;48.114;11.532;2022-12-24T14:12:44;95439.00;;;19.00
15680;BMP180;15488;48.114;11.532;2022-12-24T14:18:29;95430.00;;;18.90
15680;BMP180;15488;48.114;11.532;2022-12-24T14:20:59;95432.00;;;18.90
15680;BMP180;15488;48.114;11.532;2022-12-24T14:23:42;95427.00;;;18.90
15680;BMP180;15488;48.114;11.532;2022-12-24T14:26:15;95432.00;;;18.90
15680;BMP180;15488;48.114;11.532;2022-12-24T14:28:45;95435.00;;;18.90
15680;BMP180;15488;48.114;11.532;2022-12-24T14:31:17;95433.00;;;18.80
15680;BMP180;15488;48.114;11.532;2022-12-24T14:33:46;95434.00;;;18.80
15680;BMP180;15488;48.114;11.532;2022-12-24T14:36:17;95440.00;;;18.80